Time;durP1;ratioP1;P1;durP2;ratioP2;P2;SDS_P1;SDS_P2;PMS_P1;PMS_P2;Temp;Humidity;BMP_temperature;BMP_pressure;BME280_temperature;BME280_humidity;BME280_pressure;Samples;Min_cycle;Max_cycle;Signal;HPM_P1;HPM_P2
2020/12/26 00:01:37;;;;;;;1.83;1.00;;;;;;;-2.01;77.41;100664.44;5104900;28;20047;-68
2020/12/26 00:04:03;;;;;;;2.65;1.55;;;;;;;-2.05;77.44;100669.31;5104310;28;20042;-69
2020/12/26 00:06:29;;;;;;;2.33;1.33;;;;;;;-2.08;77.30;100672.59;5104851;28;20055;-68
2020/12/26 00:08:54;;;;;;;3.03;1.23;;;;;;;-2.07;77.17;100670.88;5104814;28;20028;-68
2020/12/26 00:11:20;;;;;;;2.50;1.55;;;;;;;-2.18;77.46;100661.09;5104711;28;20066;-68
2020/12/26 00:13:47;;;;;;;2.45;1.30;;;;;;;-2.12;77.14;100657.94;5104608;28;20049;-68
2020/12/26 00:16:12;;;;;;;3.88;1.90;;;;;;;-2.11;77.06;100672.44;5104776;28;20032;-68
2020/12/26 00:18:38;;;;;;;4.90;1.58;;;;;;;-2.15;77.11;100661.22;5104454;28;20093;-68
2020/12/26 00:21:05;;;;;;;1.58;1.48;;;;;;;-2.16;76.96;100658.63;5104633;28;20491;-68
2020/12/26 00:23:33;;;;;;;1.70;1.23;;;;;;;-2.21;76.68;100649.88;5104646;28;20012;-68
2020/12/26 00:25:58;;;;;;;4.13;1.65;;;;;;;-2.19;76.88;100655.94;5104504;28;20016;-68
2020/12/26 00:28:23;;;;;;;4.28;1.60;;;;;;;-2.16;76.69;100659.50;5104134;28;20050;-68
2020/12/26 00:30:49;;;;;;;4.25;1.17;;;;;;;-2.22;76.71;100650.69;5104417;28;20513;-68
2020/12/26 00:33:14;;;;;;;2.47;1.60;;;;;;;-2.23;76.77;100660.00;5104038;28;20035;-67
2020/12/26 00:35:40;;;;;;;3.25;2.05;;;;;;;-2.21;76.38;100667.69;5103966;28;20012;-68
2020/12/26 00:38:05;;;;;;;5.88;2.67;;;;;;;-2.24;76.22;100669.28;5104082;28;20026;-68
2020/12/26 00:40:30;;;;;;;2.40;1.77;;;;;;;-2.28;76.46;100669.94;5103962;28;20083;-69
2020/12/26 00:42:56;;;;;;;5.07;2.22;;;;;;;-2.34;76.91;100663.69;5103969;28;20081;-69
2020/12/26 00:45:21;;;;;;;3.30;1.85;;;;;;;-2.37;76.99;100674.59;5103771;28;20028;-68
2020/12/26 00:47:46;;;;;;;4.07;1.70;;;;;;;-2.44;77.22;100664.91;5103847;28;20024;-70
2020/12/26 00:50:13;;;;;;;1.58;1.08;;;;;;;-2.30;76.80;100658.81;5103610;28;20039;-69
2020/12/26 00:52:38;;;;;;;2.10;1.40;;;;;;;-2.31;76.69;100668.91;5103858;28;20024;-69
2020/12/26 00:55:04;;;;;;;3.42;1.73;;;;;;;-2.34;77.15;100668.78;5103739;28;20086;-69
2020/12/26 00:57:30;;;;;;;3.28;1.88;;;;;;;-2.41;77.59;100677.78;5103427;28;20028;-69
2020/12/26 00:59:55;;;;;;;3.05;1.73;;;;;;;-2.43;77.19;100659.03;5103465;28;20020;-69
2020/12/26 01:02:20;;;;;;;5.38;2.47;;;;;;;-2.43;76.86;100674.28;5102692;28;20028;-69
2020/12/26 01:04:46;;;;;;;5.40;1.90;;;;;;;-2.46;76.62;100669.06;5102963;28;20024;-69
2020/12/26 01:07:12;;;;;;;4.07;1.98;;;;;;;-2.55;77.00;100667.81;5103324;28;20058;-68
2020/12/26 01:09:38;;;;;;;4.00;2.03;;;;;;;-2.56;77.42;100673.69;5103330;28;20063;-68
2020/12/26 01:12:04;;;;;;;5.45;2.65;;;;;;;-2.62;77.38;100656.44;5103398;28;20016;-69
2020/12/26 01:14:29;;;;;;;1.60;1.05;;;;;;;-2.55;77.57;100660.16;5103358;28;20020;-69
2020/12/26 01:16:54;;;;;;;7.78;2.47;;;;;;;-2.53;77.59;100650.97;5103238;28;20105;-69
2020/12/26 01:19:20;;;;;;;4.45;1.77;;;;;;;-2.50;77.29;100650.22;5101712;28;20020;-69
2020/12/26 01:21:52;;;;;;;3.47;2.42;;;;;;;-2.47;77.02;100649.50;5103350;28;20024;-69
2020/12/26 01:24:17;;;;;;;;;;;;;;;-2.38;76.91;100644.88;5104129;28;20020;-69
2020/12/26 01:26:45;;;;;;;6.25;2.63;;;;;;;-2.41;77.07;100644.72;5101836;28;20379;-68
2020/12/26 01:29:10;;;;;;;2.85;1.70;;;;;;;-2.40;76.94;100637.19;5103106;28;20016;-69
2020/12/26 01:31:36;;;;;;;3.22;2.22;;;;;;;-2.40;76.91;100631.22;5103288;28;20020;-68
2020/12/26 01:34:01;;;;;;;2.03;1.15;;;;;;;-2.32;76.41;100616.31;5102872;28;20031;-68
2020/12/26 01:36:26;;;;;;;3.85;1.50;;;;;;;-2.40;75.94;100621.03;5103147;28;20054;-68
2020/12/26 01:38:53;;;;;;;3.22;1.33;;;;;;;-2.48;76.27;100613.03;5102910;28;20026;-68
2020/12/26 01:41:18;;;;;;;2.33;1.23;;;;;;;-2.53;76.42;100610.28;5101810;28;20028;-68
2020/12/26 01:44:13;;;;;;;2.67;1.65;;;;;;;-2.48;76.29;100597.78;5101637;28;20169;-68
2020/12/26 01:46:38;;;;;;;3.28;1.20;;;;;;;-2.40;75.73;100595.63;5089770;28;20332;-69
2020/12/26 01:49:03;;;;;;;3.10;1.20;;;;;;;-2.46;76.29;100600.41;5102973;28;20559;-69
2020/12/26 01:51:32;;;;;;;3.13;1.58;;;;;;;-2.35;76.01;100589.09;5101501;28;20028;-68
2020/12/26 01:54:01;;;;;;;3.47;1.95;;;;;;;-2.36;75.72;100579.69;5101383;28;20095;-69
2020/12/26 01:56:27;;;;;;;3.40;1.83;;;;;;;-2.35;75.94;100584.00;5102933;28;20020;-69
2020/12/26 01:58:53;;;;;;;2.63;1.30;;;;;;;-2.52;76.06;100566.25;5101265;28;20359;-69
2020/12/26 02:01:30;;;;;;;2.67;1.52;;;;;;;-2.42;76.31;100581.94;5103202;28;20024;-69
2020/12/26 02:03:55;;;;;;;1.98;1.13;;;;;;;-2.41;76.01;100578.63;5102453;28;20028;-69
2020/12/26 02:06:21;;;;;;;2.38;1.00;;;;;;;-2.40;76.01;100567.63;5102756;28;20050;-69
2020/12/26 02:08:46;;;;;;;2.35;1.10;;;;;;;-2.31;76.25;100568.06;5102974;28;20056;-69
2020/12/26 02:11:13;;;;;;;1.80;1.15;;;;;;;-2.36;76.40;100556.78;5103018;28;20046;-69
2020/12/26 02:13:40;;;;;;;5.97;2.05;;;;;;;-2.28;76.11;100563.13;5104977;28;20028;-70
2020/12/26 02:16:08;;;;;;;2.70;1.58;;;;;;;-2.27;76.38;100566.53;5106693;28;20035;-69
2020/12/26 02:18:34;;;;;;;1.42;0.90;;;;;;;-2.35;76.77;100555.13;5106450;28;20088;-69
2020/12/26 02:21:03;;;;;;;2.90;1.30;;;;;;;-2.27;76.43;100558.91;5106633;28;20012;-68
2020/12/26 02:23:29;;;;;;;4.22;1.50;;;;;;;-2.34;76.98;100544.16;5105175;28;20094;-69
2020/12/26 02:25:56;;;;;;;1.92;1.15;;;;;;;-2.30;76.44;100535.88;5106433;28;20483;-69
2020/12/26 02:28:22;;;;;;;1.27;1.00;;;;;;;-2.27;76.63;100529.25;5106433;28;20034;-69
2020/12/26 02:30:47;;;;;;;1.20;0.73;;;;;;;-2.24;76.34;100515.81;5106354;28;20040;-69
2020/12/26 02:33:13;;;;;;;3.47;1.42;;;;;;;-2.24;76.49;100526.84;5106477;28;20028;-70
2020/12/26 02:35:38;;;;;;;1.90;1.40;;;;;;;-2.17;76.73;100522.91;5105831;28;20024;-69
2020/12/26 02:38:03;;;;;;;2.35;0.95;;;;;;;-2.12;76.40;100513.81;5106146;28;20020;-70
2020/12/26 02:40:29;;;;;;;2.33;1.40;;;;;;;-1.94;75.81;100514.56;5105928;28;20027;-68
2020/12/26 02:42:54;;;;;;;11.02;1.05;;;;;;;-1.91;75.43;100509.63;5105978;28;20473;-69
2020/12/26 02:45:19;;;;;;;1.73;0.95;;;;;;;-1.89;75.60;100502.94;5106014;28;20008;-69
2020/12/26 02:47:45;;;;;;;2.15;1.50;;;;;;;-1.94;75.52;100507.81;5104557;28;20020;-69
2020/12/26 02:50:10;;;;;;;2.53;1.02;;;;;;;-1.88;75.14;100503.00;5105428;28;20438;-69
2020/12/26 02:52:35;;;;;;;1.05;0.88;;;;;;;-1.87;75.08;100506.41;5105814;28;20043;-69
2020/12/26 02:55:01;;;;;;;2.30;1.40;;;;;;;-1.99;75.45;100504.19;5105849;28;20412;-69
2020/12/26 02:57:26;;;;;;;1.52;1.38;;;;;;;-1.92;75.03;100508.75;5105884;28;20031;-68
2020/12/26 02:59:51;;;;;;;2.42;1.15;;;;;;;-2.04;75.45;100501.44;5105586;28;20032;-68
2020/12/26 03:02:17;;;;;;;0.85;0.73;;;;;;;-2.04;75.46;100504.00;5105591;28;20047;-69
2020/12/26 03:04:42;;;;;;;1.48;1.00;;;;;;;-1.95;75.09;100490.78;5105261;28;20023;-69
2020/12/26 03:07:08;;;;;;;2.13;1.00;;;;;;;-1.83;74.77;100489.59;5105307;28;20052;-68
2020/12/26 03:09:34;;;;;;;1.83;1.13;;;;;;;-1.85;74.73;100489.53;5105458;28;20028;-69
2020/12/26 03:11:59;;;;;;;3.03;1.08;;;;;;;-1.69;74.06;100491.06;5105199;28;20177;-69
2020/12/26 03:14:24;;;;;;;1.10;0.75;;;;;;;-1.84;74.74;100483.66;5105659;28;20020;-69
2020/12/26 03:16:50;;;;;;;0.70;0.70;;;;;;;-1.84;75.10;100470.94;5105258;28;20028;-70
2020/12/26 03:19:15;;;;;;;3.25;1.10;;;;;;;-1.63;74.02;100467.56;5104995;28;20023;-69
2020/12/26 03:21:40;;;;;;;0.95;0.85;;;;;;;-1.79;74.56;100458.41;5105449;28;20427;-69
2020/12/26 03:24:06;;;;;;;1.42;1.10;;;;;;;-1.85;74.75;100443.72;5104774;28;20027;-70
2020/12/26 03:26:31;;;;;;;1.40;1.00;;;;;;;-1.79;74.58;100443.97;5103492;28;20043;-69
2020/12/26 03:28:56;;;;;;;0.93;0.82;;;;;;;-1.72;74.67;100440.03;5104923;28;20039;-69
2020/12/26 03:31:22;;;;;;;1.17;0.88;;;;;;;-1.81;74.64;100430.34;5105199;28;20031;-71
2020/12/26 03:33:47;;;;;;;1.42;1.00;;;;;;;-1.81;75.04;100440.50;5105039;28;20056;-70
2020/12/26 03:36:12;;;;;;;2.17;0.70;;;;;;;-1.73;74.87;100427.22;5103572;28;20035;-71
2020/12/26 03:38:38;;;;;;;2.22;1.15;;;;;;;-1.61;74.06;100417.56;5104661;28;20050;-69
2020/12/26 03:41:05;;;;;;;2.05;0.80;;;;;;;-1.54;73.61;100419.56;5105145;28;20031;-69
2020/12/26 03:43:30;;;;;;;2.42;1.38;;;;;;;-1.74;74.60;100421.25;5103500;28;20024;-70
2020/12/26 03:45:55;;;;;;;5.13;1.92;;;;;;;-1.65;74.14;100419.13;5104802;28;20398;-68
2020/12/26 03:48:20;;;;;;;2.67;1.42;;;;;;;-1.73;74.57;100414.50;5104729;28;20051;-69
2020/12/26 03:50:46;;;;;;;1.65;1.38;;;;;;;-1.79;74.90;100403.25;5102948;28;20424;-69
2020/12/26 03:53:11;;;;;;;2.90;1.50;;;;;;;-1.80;74.89;100410.81;5103192;28;20031;-69
2020/12/26 03:55:36;;;;;;;5.10;1.13;;;;;;;-1.85;75.20;100390.25;5103191;28;20095;-69
2020/12/26 03:58:02;;;;;;;1.60;0.90;;;;;;;-1.82;75.03;100392.94;5104499;28;20054;-68
2020/12/26 04:00:27;;;;;;;1.38;0.82;;;;;;;-1.84;75.62;100402.22;5104336;28;20035;-70
2020/12/26 04:02:52;;;;;;;2.20;1.00;;;;;;;-1.82;75.65;100402.28;5104450;28;20019;-69
2020/12/26 04:05:18;;;;;;;3.17;1.10;;;;;;;-1.89;75.99;100393.50;5102437;28;20016;-69
2020/12/26 04:07:43;;;;;;;4.28;1.70;;;;;;;-1.88;75.90;100378.28;5104261;28;20054;-69
2020/12/26 04:10:08;;;;;;;2.20;1.75;;;;;;;-1.85;76.06;100377.53;5104102;28;20020;-69
2020/12/26 04:12:34;;;;;;;3.47;1.35;;;;;;;-1.99;76.59;100374.41;5104431;28;20020;-71
2020/12/26 04:14:59;;;;;;;1.10;1.00;;;;;;;-1.81;76.99;100388.72;5104140;28;20031;-70
2020/12/26 04:17:25;;;;;;;1.63;1.00;;;;;;;-1.75;76.62;100381.34;5104176;28;20052;-70
2020/12/26 04:19:50;;;;;;;1.50;1.00;;;;;;;-1.82;77.06;100371.72;5103878;28;20028;-70
2020/12/26 04:22:16;;;;;;;2.38;1.20;;;;;;;-1.81;76.86;100369.25;5104273;28;20050;-69
2020/12/26 04:24:44;;;;;;;1.45;1.20;;;;;;;-1.85;77.13;100366.50;5103948;28;20392;-70
2020/12/26 04:27:10;;;;;;;3.40;1.20;;;;;;;-1.82;77.18;100361.53;5103959;28;20518;-70
2020/12/26 04:29:35;;;;;;;1.00;0.90;;;;;;;-1.75;77.38;100366.94;5103793;28;20024;-68
2020/12/26 04:32:01;;;;;;;2.08;1.50;;;;;;;-1.79;77.41;100359.97;5103733;28;20042;-68
2020/12/26 04:34:26;;;;;;;1.92;1.27;;;;;;;-1.63;77.24;100363.16;5103443;28;20028;-68
2020/12/26 04:36:51;;;;;;;1.52;1.10;;;;;;;-1.62;77.18;100367.44;5103537;28;20031;-69
2020/12/26 04:39:17;;;;;;;4.30;1.17;;;;;;;-1.72;77.68;100344.94;5103758;28;20027;-69
2020/12/26 04:41:42;;;;;;;0.82;0.82;;;;;;;-1.66;77.75;100352.88;5103701;28;20019;-68
2020/12/26 04:44:10;;;;;;;1.52;1.17;;;;;;;-1.72;78.18;100347.50;5103729;28;20080;-69
2020/12/26 04:46:36;;;;;;;6.63;1.50;;;;;;;-1.68;78.13;100351.94;5103735;28;20500;-69
2020/12/26 04:49:07;;;;;;;2.15;1.10;;;;;;;-1.60;78.28;100350.56;5103260;28;20032;-69
2020/12/26 04:51:35;;;;;;;1.20;1.10;;;;;;;-1.63;78.41;100342.81;5103655;28;20034;-70
2020/12/26 04:54:08;;;;;;;4.85;1.60;;;;;;;-1.63;78.59;100332.63;5103365;28;20024;-69
2020/12/26 04:56:40;;;;;;;1.55;1.13;;;;;;;-1.47;78.40;100340.88;5103544;28;20100;-70
2020/12/26 04:59:07;;;;;;;1.02;0.88;;;;;;;-1.51;78.55;100332.22;5103576;28;20103;-69
2020/12/26 05:01:36;;;;;;;2.60;1.17;;;;;;;-1.56;78.60;100320.97;5103574;28;20024;-69
2020/12/26 05:04:02;;;;;;;1.77;1.02;;;;;;;-1.48;78.56;100321.28;5103174;28;20043;-69
2020/12/26 05:06:30;;;;;;;2.20;1.25;;;;;;;-1.57;78.81;100330.31;5103372;28;20098;-69
2020/12/26 05:08:55;;;;;;;3.50;1.10;;;;;;;-1.57;79.11;100335.41;5103470;28;20023;-69
2020/12/26 05:11:21;;;;;;;2.65;1.23;;;;;;;-1.56;79.46;100342.22;5103760;28;20028;-69
2020/12/26 05:13:46;;;;;;;1.35;1.10;;;;;;;-1.54;79.63;100344.84;5103510;28;20035;-68
2020/12/26 05:16:11;;;;;;;0.82;0.63;;;;;;;-1.38;79.11;100343.78;5103546;28;20028;-68
2020/12/26 05:18:38;;;;;;;1.48;0.90;;;;;;;-1.52;79.44;100327.94;5103315;28;20024;-68
2020/12/26 05:21:04;;;;;;;4.40;1.25;;;;;;;-1.47;79.44;100318.78;5103521;28;20026;-69
2020/12/26 05:23:29;;;;;;;2.20;1.17;;;;;;;-1.45;79.72;100327.38;5103874;28;20024;-70
2020/12/26 05:25:54;;;;;;;2.03;1.27;;;;;;;-1.41;79.60;100323.28;5103459;28;20034;-69
2020/12/26 05:28:22;;;;;;;1.88;1.40;;;;;;;-1.36;79.73;100319.25;5103327;28;20024;-71
2020/12/26 05:30:51;;;;;;;2.17;1.10;;;;;;;-1.35;79.79;100315.00;5103442;28;20039;-70
2020/12/26 05:33:17;;;;;;;2.38;1.23;;;;;;;-1.33;79.76;100321.91;5103433;28;20020;-68
2020/12/26 05:35:48;;;;;;;2.17;1.55;;;;;;;-1.38;79.93;100323.41;5102839;28;20024;-71
2020/12/26 05:38:22;;;;;;;1.58;1.10;;;;;;;-1.39;80.07;100326.75;5103372;28;20127;-68
2020/12/26 05:41:09;;;;;;;1.67;1.17;;;;;;;-1.32;80.05;100315.13;5101698;28;20028;-68
2020/12/26 05:43:34;;;;;;;4.03;1.48;;;;;;;-1.40;80.26;100317.38;5103333;28;20023;-69
2020/12/26 05:46:00;;;;;;;3.97;1.60;;;;;;;-1.28;80.25;100314.44;5103065;28;20016;-69
2020/12/26 05:48:28;;;;;;;1.25;0.90;;;;;;;-1.26;80.50;100321.31;5105020;28;20020;-69
2020/12/26 05:50:57;;;;;;;4.20;1.80;;;;;;;-1.29;80.14;100315.22;5106919;28;20054;-69
2020/12/26 05:53:25;;;;;;;1.77;0.95;;;;;;;-1.18;80.12;100311.41;5107163;28;20027;-70
2020/12/26 05:55:50;;;;;;;1.90;1.45;;;;;;;-1.04;79.52;100322.13;5107048;28;20016;-69
2020/12/26 05:58:41;;;;;;;0.70;0.65;;;;;;;-1.11;80.05;100309.97;5106963;28;20055;-69
2020/12/26 06:01:06;;;;;;;1.30;0.88;;;;;;;-1.23;80.54;100315.47;5107122;28;20024;-69
2020/12/26 06:03:33;;;;;;;3.28;1.70;;;;;;;-1.20;80.40;100309.63;5106948;28;20058;-69
2020/12/26 06:06:00;;;;;;;3.88;1.60;;;;;;;-1.22;80.71;100309.56;5106570;28;20040;-70
2020/12/26 06:08:28;;;;;;;2.85;1.80;;;;;;;-1.22;80.61;100294.28;5106612;28;20276;-68
2020/12/26 06:11:12;;;;;;;0.93;0.82;;;;;;;-1.14;80.43;100297.13;5106835;28;20027;-70
2020/12/26 06:13:37;;;;;;;3.28;2.05;;;;;;;-1.40;81.02;100281.72;5106517;28;20031;-68
2020/12/26 06:16:06;;;;;;;4.63;1.83;;;;;;;-1.34;81.63;100304.03;5106662;28;20020;-68
2020/12/26 06:18:31;;;;;;;5.03;2.20;;;;;;;-1.31;81.93;100291.41;5106876;28;20027;-69
2020/12/26 06:20:57;;;;;;;4.32;2.22;;;;;;;-1.22;81.82;100285.78;5106427;28;20328;-69
2020/12/26 06:23:24;;;;;;;4.30;1.58;;;;;;;-1.21;81.77;100283.28;5106444;28;20095;-69
2020/12/26 06:25:52;;;;;;;3.08;1.95;;;;;;;-1.25;81.57;100266.16;5106402;28;20026;-70
2020/12/26 06:28:25;;;;;;;3.83;3.53;;;;;;;-1.23;81.81;100271.31;5106405;28;20472;-69
2020/12/26 06:30:53;;;;;;;3.45;1.55;;;;;;;-1.21;82.02;100264.56;5106455;28;20020;-69
2020/12/26 06:33:22;;;;;;;2.72;1.73;;;;;;;-1.14;81.75;100271.66;5106341;28;20042;-70
2020/12/26 06:35:47;;;;;;;5.00;2.53;;;;;;;-1.18;82.21;100269.81;5106050;28;20150;-70
2020/12/26 06:38:18;;;;;;;5.38;1.90;;;;;;;-1.13;82.36;100275.91;5106274;28;20515;-70
2020/12/26 06:40:54;;;;;;;2.88;1.65;;;;;;;-1.12;82.38;100273.44;5105738;28;20016;-70
2020/12/26 06:43:38;;;;;;;3.60;1.90;;;;;;;-1.07;82.15;100265.94;5106148;28;20082;-70
2020/12/26 06:46:06;;;;;;;3.17;1.52;;;;;;;-1.08;81.90;100264.22;5106275;28;20080;-70
2020/12/26 06:48:35;;;;;;;3.35;1.80;;;;;;;-1.06;81.73;100267.72;5105889;28;20221;-70
2020/12/26 06:51:23;;;;;;;3.10;1.45;;;;;;;-1.04;81.85;100266.06;5106021;28;20016;-70
2020/12/26 06:53:48;;;;;;;3.42;1.83;;;;;;;-1.16;81.83;100258.84;5105997;28;20046;-70
2020/12/26 06:56:32;;;;;;;4.20;2.25;;;;;;;-1.16;82.24;100269.03;5106042;28;20048;-68
2020/12/26 06:58:58;;;;;;;3.85;2.38;;;;;;;-1.16;82.54;100263.06;5106149;28;20040;-70
2020/12/26 07:01:24;;;;;;;4.53;2.10;;;;;;;-1.09;82.41;100261.63;5106076;28;20472;-69
2020/12/26 07:04:21;;;;;;;3.63;1.98;;;;;;;-1.06;82.55;100260.06;5105696;28;20514;-69
2020/12/26 07:06:49;;;;;;;4.30;2.10;;;;;;;-1.06;82.30;100265.16;5105651;28;20052;-70
2020/12/26 07:09:17;;;;;;;6.32;1.90;;;;;;;-1.06;82.58;100261.72;5104431;28;20027;-69
2020/12/26 07:11:53;;;;;;;4.05;1.80;;;;;;;-1.06;82.65;100256.63;5105644;28;20477;-69
2020/12/26 07:14:38;;;;;;;3.20;1.98;;;;;;;-1.01;82.81;100260.22;5105583;28;20041;-69
2020/12/26 07:17:06;;;;;;;3.55;1.95;;;;;;;-1.04;82.67;100260.97;5105712;28;20225;-69
2020/12/26 07:19:36;;;;;;;4.72;2.03;;;;;;;-1.02;82.53;100254.25;5104031;28;20020;-70
2020/12/26 07:22:03;;;;;;;2.92;1.30;;;;;;;-0.98;82.55;100251.81;5105773;28;20024;-69
2020/12/26 07:24:28;;;;;;;3.05;1.80;;;;;;;-0.99;82.79;100253.50;5104194;28;20028;-69
2020/12/26 07:26:54;;;;;;;2.47;1.50;;;;;;;-0.98;83.04;100251.81;5105630;28;20027;-70
2020/12/26 07:29:26;;;;;;;2.97;1.83;;;;;;;-0.94;83.19;100243.50;5105448;28;20028;-69
2020/12/26 07:31:52;;;;;;;4.78;2.10;;;;;;;-0.93;83.27;100230.81;5105550;28;20091;-70
2020/12/26 07:34:38;;;;;;;3.92;1.83;;;;;;;-0.79;83.51;100241.47;5105233;28;20384;-69
2020/12/26 07:37:04;;;;;;;4.35;1.92;;;;;;;-0.67;83.54;100237.63;5105288;28;20028;-70
2020/12/26 07:39:30;;;;;;;6.32;1.98;;;;;;;-0.60;83.64;100228.50;5104992;28;20023;-69
2020/12/26 07:41:56;;;;;;;2.47;1.70;;;;;;;-0.41;83.81;100235.09;5105051;28;20588;-69
2020/12/26 07:44:27;;;;;;;4.45;1.85;;;;;;;-0.28;83.92;100229.59;5105042;28;20106;-70
2020/12/26 07:46:55;;;;;;;7.83;2.37;;;;;;;-0.16;83.91;100224.00;5104983;28;20105;-70
2020/12/26 07:49:21;;;;;;;5.70;1.95;;;;;;;0.02;83.85;100224.56;5104814;28;20024;-70
2020/12/26 07:52:07;;;;;;;5.55;2.13;;;;;;;0.14;83.88;100226.63;5104926;28;20025;-70
2020/12/26 07:54:32;;;;;;;6.93;2.70;;;;;;;0.17;83.71;100213.97;5104968;28;20031;-69
2020/12/26 07:56:58;;;;;;;5.00;2.20;;;;;;;0.29;83.71;100223.69;5104684;28;20487;-69
2020/12/26 07:59:24;;;;;;;5.55;2.30;;;;;;;0.35;83.75;100219.63;5104700;28;20057;-69
2020/12/26 08:01:51;;;;;;;4.07;1.90;;;;;;;0.43;83.83;100219.00;5104767;28;20032;-69
2020/12/26 08:04:17;;;;;;;4.75;2.05;;;;;;;0.50;83.85;100220.91;5104256;28;20430;-69
2020/12/26 08:06:45;;;;;;;3.47;2.10;;;;;;;0.58;83.51;100221.13;5102947;28;20099;-69
2020/12/26 08:09:12;;;;;;;3.95;1.95;;;;;;;0.63;83.21;100214.47;5104441;28;20024;-69
2020/12/26 08:11:38;;;;;;;6.70;1.42;;;;;;;0.62;82.88;100207.66;5103947;28;20016;-69
2020/12/26 08:14:03;;;;;;;5.25;2.00;;;;;;;0.72;82.92;100216.41;5104336;28;20028;-69
2020/12/26 08:16:29;;;;;;;3.72;1.75;;;;;;;0.76;82.72;100209.72;5104261;28;20324;-70
2020/12/26 08:18:55;;;;;;;5.32;1.95;;;;;;;0.76;82.77;100209.72;5104137;28;20384;-70
2020/12/26 08:21:21;;;;;;;7.13;1.83;;;;;;;0.80;82.73;100203.88;5104292;28;20415;-70
2020/12/26 08:23:55;;;;;;;3.78;1.92;;;;;;;0.82;83.03;100200.53;5104304;28;20016;-70
2020/12/26 08:26:21;;;;;;;3.90;1.58;;;;;;;0.86;83.19;100188.72;5104526;28;20045;-71
2020/12/26 08:28:48;;;;;;;2.67;1.60;;;;;;;0.92;83.43;100182.91;5104234;28;20040;-71
2020/12/26 08:31:16;;;;;;;3.95;1.50;;;;;;;0.97;83.70;100189.88;5104458;28;20031;-68
2020/12/26 08:33:48;;;;;;;7.15;1.77;;;;;;;0.94;83.58;100188.94;5103341;28;20085;-68
2020/12/26 08:36:26;;;;;;;;;;;;;;;1.02;83.59;100187.44;5103082;28;20028;-72
2020/12/26 08:38:55;;;;;;;4.30;1.42;;;;;;;0.98;83.73;100178.81;5104260;28;19912;-73
2020/12/26 08:41:21;;;;;;;6.05;1.58;;;;;;;0.99;84.02;100167.75;5104453;28;20024;-72
2020/12/26 08:43:47;;;;;;;4.78;1.92;;;;;;;0.99;84.12;100166.91;5104309;28;20050;-71
2020/12/26 08:46:17;;;;;;;4.22;1.52;;;;;;;1.04;84.39;100164.50;5102669;28;20020;-72
2020/12/26 08:48:43;;;;;;;5.10;1.92;;;;;;;1.07;84.52;100170.53;5103944;28;20032;-70
2020/12/26 08:51:27;;;;;;;2.72;1.20;;;;;;;1.09;84.73;100162.91;5102339;28;20082;-69
2020/12/26 08:53:56;;;;;;;4.82;1.38;;;;;;;1.13;84.46;100163.84;5104021;28;20024;-70
2020/12/26 08:56:38;;;;;;;4.65;1.73;;;;;;;1.17;84.87;100158.84;5104011;28;20020;-70
2020/12/26 08:59:04;;;;;;;6.63;1.63;;;;;;;1.21;84.94;100153.00;5103729;28;20091;-70
2020/12/26 09:01:30;;;;;;;3.28;1.42;;;;;;;1.25;84.91;100147.97;5103977;28;20020;-73
2020/12/26 09:03:58;;;;;;;10.15;2.60;;;;;;;1.34;84.98;100159.28;5102084;28;20531;-72
2020/12/26 09:06:35;;;;;;;2.15;1.30;;;;;;;1.36;85.10;100146.53;5103521;28;20040;-74
2020/12/26 09:09:18;;;;;;;4.22;1.75;;;;;;;1.37;84.99;100148.28;5103349;28;20038;-72
2020/12/26 09:11:43;;;;;;;5.10;1.45;;;;;;;1.46;84.82;100143.38;5102417;28;20049;-71
2020/12/26 09:14:21;;;;;;;6.28;1.48;;;;;;;1.53;85.01;100138.41;5103979;28;20113;-71
2020/12/26 09:16:58;;;;;;;4.28;1.30;;;;;;;1.58;84.95;100131.72;5103722;28;20024;-71
2020/12/26 09:19:25;;;;;;;3.15;1.20;;;;;;;1.67;85.06;100116.59;5103469;28;20097;-72
2020/12/26 09:21:50;;;;;;;4.82;2.05;;;;;;;1.72;84.81;100122.69;5103655;28;20020;-72
2020/12/26 09:24:20;;;;;;;4.22;1.55;;;;;;;1.79;84.76;100113.44;5106648;28;20103;-71
2020/12/26 09:26:47;;;;;;;2.38;1.17;;;;;;;1.77;84.64;100102.31;5107653;28;20024;-71
2020/12/26 09:29:23;;;;;;;3.40;1.40;;;;;;;1.80;84.60;100097.25;5107217;28;20020;-71
2020/12/26 09:31:49;;;;;;;4.20;1.90;;;;;;;1.85;84.72;100105.03;5105943;28;20020;-71
2020/12/26 09:34:17;;;;;;;7.38;1.60;;;;;;;1.90;84.66;100103.44;5106990;28;20025;-71
2020/12/26 09:36:44;;;;;;;5.53;1.98;;;;;;;1.80;84.41;100092.13;5105766;28;20024;-71
2020/12/26 09:39:12;;;;;;;5.43;1.77;;;;;;;1.89;84.58;100095.72;5106982;28;20047;-71
2020/12/26 09:41:48;;;;;;;3.47;1.80;;;;;;;1.88;84.53;100092.31;5107193;28;20020;-71
2020/12/26 09:44:15;;;;;;;8.93;2.03;;;;;;;1.87;84.18;100093.13;5106973;28;20020;-72
2020/12/26 09:46:42;;;;;;;2.55;1.58;;;;;;;1.82;84.16;100090.47;5107267;28;20016;-71
2020/12/26 09:49:08;;;;;;;3.75;1.52;;;;;;;1.76;84.40;100085.19;5106825;28;20369;-71
2020/12/26 09:51:33;;;;;;;4.88;2.22;;;;;;;1.76;84.28;100089.47;5107415;28;20027;-71
2020/12/26 09:53:59;;;;;;;7.75;1.85;;;;;;;1.74;84.19;100081.75;5107203;28;20028;-71
2020/12/26 09:56:26;;;;;;;4.03;2.13;;;;;;;1.72;84.52;100084.28;5106969;28;20460;-71
2020/12/26 09:58:56;;;;;;;3.53;2.03;;;;;;;1.69;84.35;100071.41;5106929;28;20024;-72
2020/12/26 10:01:24;;;;;;;3.30;2.00;;;;;;;1.72;84.07;100071.50;5106963;28;20016;-72
2020/12/26 10:03:50;;;;;;;8.90;2.03;;;;;;;1.64;83.93;100060.22;5107074;28;20050;-72
2020/12/26 10:06:22;;;;;;;5.97;2.10;;;;;;;1.52;83.91;100055.66;5106408;28;20032;-73
2020/12/26 10:08:48;;;;;;;6.22;1.95;;;;;;;1.47;84.33;100058.13;5106810;28;20457;-74
2020/12/26 10:11:16;;;;;;;9.75;3.00;;;;;;;1.42;84.78;100061.41;5105468;28;20157;-72
2020/12/26 10:13:43;;;;;;;6.97;2.08;;;;;;;1.47;84.98;100053.00;5106902;28;20103;-74
2020/12/26 10:16:09;;;;;;;2.45;1.60;;;;;;;1.45;84.55;100038.47;5106914;28;20020;-74
2020/12/26 10:18:34;;;;;;;4.78;1.52;;;;;;;1.49;84.91;100042.81;5107102;28;20072;-72
2020/12/26 10:21:00;;;;;;;4.68;2.20;;;;;;;1.46;84.99;100041.06;5106533;28;20112;-74
2020/12/26 10:23:26;;;;;;;5.05;2.50;;;;;;;1.54;85.04;100037.78;5106746;28;20081;-72
2020/12/26 10:25:52;;;;;;;4.53;2.42;;;;;;;1.52;85.11;100035.19;5106982;28;20076;-73
2020/12/26 10:28:17;;;;;;;5.70;2.40;;;;;;;1.51;85.35;100035.16;5106508;28;20311;-72
2020/12/26 10:30:44;;;;;;;5.03;2.30;;;;;;;1.56;85.57;100038.69;5106482;28;20032;-73
2020/12/26 10:33:09;;;;;;;7.28;2.67;;;;;;;1.57;85.79;100037.84;5105340;28;20268;-72
2020/12/26 10:35:35;;;;;;;9.35;2.83;;;;;;;1.60;85.95;100032.81;5105799;28;20248;-73
2020/12/26 10:38:00;;;;;;;9.15;2.83;;;;;;;1.70;85.53;100024.53;5106556;28;20023;-73
2020/12/26 10:40:25;;;;;;;7.88;2.47;;;;;;;1.73;85.54;100011.78;5106461;28;20222;-73
2020/12/26 10:42:51;;;;;;;8.38;2.67;;;;;;;1.79;85.31;100007.63;5106572;28;20024;-74
2020/12/26 10:45:16;;;;;;;6.78;2.47;;;;;;;1.78;85.33;99998.22;5105304;28;20016;-70
2020/12/26 10:47:42;;;;;;;14.05;4.28;;;;;;;1.77;85.62;99999.94;5106298;28;20028;-75
2020/12/26 10:50:07;;;;;;;4.63;1.85;;;;;;;1.83;85.52;99997.50;5105952;28;20043;-75
2020/12/26 10:52:32;;;;;;;6.82;3.00;;;;;;;1.77;85.53;99979.44;5105001;28;20020;-75
2020/12/26 10:54:59;;;;;;;12.95;3.38;;;;;;;1.86;85.67;99978.75;5106136;28;20250;-76
2020/12/26 10:57:24;;;;;;;4.95;2.67;;;;;;;1.91;85.58;99974.59;5106217;28;20024;-77
2020/12/26 10:59:49;;;;;;;7.28;2.00;;;;;;;1.91;85.41;99960.94;5106121;28;20047;-77
2020/12/26 11:02:15;;;;;;;8.65;2.80;;;;;;;2.02;85.49;99961.13;5106220;28;20023;-75
2020/12/26 11:04:40;;;;;;;2.60;1.27;;;;;;;2.06;85.35;99950.13;5105868;28;20058;-77
2020/12/26 11:07:06;;;;;;;7.00;2.30;;;;;;;2.04;85.62;99952.66;5105871;28;20040;-77
2020/12/26 11:09:31;;;;;;;4.50;2.05;;;;;;;2.04;85.52;99949.25;5106031;28;20024;-76
2020/12/26 11:11:57;;;;;;;6.57;2.28;;;;;;;2.12;85.54;99946.81;5104545;28;20020;-76
2020/12/26 11:14:22;;;;;;;10.23;1.80;;;;;;;2.19;85.68;99943.56;5104122;28;20047;-77
2020/12/26 11:16:49;;;;;;;6.95;2.30;;;;;;;2.21;85.65;99940.19;5105839;28;20427;-75
2020/12/26 11:19:14;;;;;;;6.28;2.10;;;;;;;2.31;85.39;99922.41;5105456;28;20020;-74
2020/12/26 11:21:40;;;;;;;4.35;2.20;;;;;;;2.50;84.69;99922.72;5105642;28;20020;-76
2020/12/26 11:24:05;;;;;;;3.85;2.25;;;;;;;2.35;84.84;99909.66;5105556;28;20028;-77
2020/12/26 11:26:30;;;;;;;15.65;2.40;;;;;;;2.42;84.66;99913.22;5105821;28;20020;-77
2020/12/26 11:28:56;;;;;;;8.55;1.63;;;;;;;2.41;84.92;99896.09;5105482;28;20157;-78
2020/12/26 11:31:25;;;;;;;5.07;1.92;;;;;;;2.40;85.11;99878.13;5105474;28;20046;-77